首页
METAR-TAF:

METAR-TAF

机场 :

Beaufort, 南卡罗来纳州, 美国

纬度: 32-29-37N, 经度: 080-42-11W, 海拔: 11米

当前天气观测

该预报发布于45分钟前的16:56 UTC
风速3节,风向东南
温度 31°C
湿度 66%
气压 1016 hPa
能見度: 16.1公里
散云层高于2300英尺
散云层高于2800英尺

METAR: KNBC 041656Z 14003KT 10SM SCT023 SCT028 31/24 A2999 RMK AO2 SLP156 T03060244

时间: 13:41 (17:41 UTC)

预报

预报有效从04日的 15点(UTC)到 05日的 15点(UTC)
风速5节,风向西南
能见度10公里或以上
阴天层高于700英尺
成为
从 04日的 16点(UTC)到 04日的 18点(UTC)
风速5节,风向西南
能见度10公里或以上
散云层高于4000英尺
散云层高于10000英尺
短暂存在
从 04日的 18点(UTC)到 04日的 23点(UTC)
风速10节,风向
能見度: 6000
阴天层高于3000英尺, 积雨云.
雷暴, 雨, 轻雾
从 05日的 0000点(UTC)
风速7节,风向
能见度10公里或以上
多云层高于5000英尺
多云层高于12000英尺

TAF: KNBC 0415/0515 22005KT 9999 OVC007 QNH2998INS BECMG 0416/0418 22005KT 9999 SCT040 SCT100 QNH2992INS TEMPO 0418/0423 19010KT 6000 TSRA BR OVC030CB FM050000 18007KT 9999 BKN050 BKN120 QNH2994INS T33/0418Z T24/0509Z

超过4000个机场的气象观测和天气预报(METAR&TAF报告)。

可查询的气象台以黄色和红色小点在地图上表示。

将鼠标移到小点上方,可查看气象台名称。

然后点击查看天气观测和预报。

如需切换地图:点击带黑十字的绿色按钮放大地图;点击带横线的绿色按钮缩小地图;或者点击绿色箭头查看邻近地区的地图。


METAR-TAF: